Abbeville, Alabama
Current Conditions -  °F | °C
As of 6:53 PM on Tuesday 21 Oct 2014 (Local Time) from KDHN Reporting Station
Clear Clear  
Wind Chill: 17°   Ceiling: Unl
Heat Index: 17°   Visibility: 10mi
Dew Point: 12°   Wind: 3mph
Humidity: 75%   Direction: 340°NNW
Pressure: 30"   Gusts: NA
Location:  31.57°N, 85.25°W
Report Text: KDHN 212353Z 34003KT 10SM CLR 17/12 A3000 RMK AO2 SLP156 T01670122 10272 20167 53007
Loading
Personal Weather Stations






























Interactive Weather Map
Tropical Storm Tracking
New forecast layout! Learn more

10-Day Weather Forecast

Advertisements
Track Severe Weather on mobile